sensor_id;sensor_type;location;lat;lon;timestamp;P1;durP1;ratioP1;P2;durP2;ratioP2
59872;SDS011;50750;51.636;4.948;2023-03-29T00:00:48;3.00;;;1.40;;
59872;SDS011;50750;51.636;4.948;2023-03-29T00:03:17;2.70;;;1.20;;
59872;SDS011;50750;51.636;4.948;2023-03-29T00:05:43;2.70;;;1.30;;
59872;SDS011;50750;51.636;4.948;2023-03-29T00:08:10;3.60;;;1.40;;
59872;SDS011;50750;51.636;4.948;2023-03-29T00:10:39;2.60;;;1.40;;
59872;SDS011;50750;51.636;4.948;2023-03-29T00:13:07;2.10;;;1.30;;
59872;SDS011;50750;51.636;4.948;2023-03-29T00:15:33;2.90;;;1.20;;
59872;SDS011;50750;51.636;4.948;2023-03-29T00:18:00;3.60;;;1.40;;
59872;SDS011;50750;51.636;4.948;2023-03-29T00:20:27;3.30;;;1.40;;
59872;SDS011;50750;51.636;4.948;2023-03-29T00:22:54;3.00;;;1.60;;
59872;SDS011;50750;51.636;4.948;2023-03-29T00:25:20;2.60;;;1.30;;
59872;SDS011;50750;51.636;4.948;2023-03-29T00:27:47;2.70;;;1.40;;
59872;SDS011;50750;51.636;4.948;2023-03-29T00:30:13;2.60;;;1.40;;
59872;SDS011;50750;51.636;4.948;2023-03-29T00:32:40;2.30;;;1.30;;
59872;SDS011;50750;51.636;4.948;2023-03-29T00:35:08;2.30;;;1.30;;
59872;SDS011;50750;51.636;4.948;2023-03-29T00:37:35;3.20;;;1.40;;
59872;SDS011;50750;51.636;4.948;2023-03-29T00:40:03;2.80;;;1.20;;
59872;SDS011;50750;51.636;4.948;2023-03-29T00:42:36;2.40;;;1.40;;
59872;SDS011;50750;51.636;4.948;2023-03-29T00:47:31;3.80;;;1.30;;
59872;SDS011;50750;51.636;4.948;2023-03-29T00:50:11;2.80;;;1.30;;
59872;SDS011;50750;51.636;4.948;2023-03-29T00:52:42;2.80;;;1.20;;
59872;SDS011;50750;51.636;4.948;2023-03-29T00:55:13;2.00;;;1.20;;
59872;SDS011;50750;51.636;4.948;2023-03-29T00:57:44;3.00;;;1.30;;
59872;SDS011;50750;51.636;4.948;2023-03-29T01:00:15;3.00;;;1.40;;
59872;SDS011;50750;51.636;4.948;2023-03-29T01:02:46;2.60;;;1.30;;
59872;SDS011;50750;51.636;4.948;2023-03-29T01:05:20;2.80;;;1.20;;
59872;SDS011;50750;51.636;4.948;2023-03-29T01:07:56;2.70;;;1.40;;
59872;SDS011;50750;51.636;4.948;2023-03-29T01:10:29;2.50;;;1.40;;
59872;SDS011;50750;51.636;4.948;2023-03-29T01:13:14;3.00;;;1.30;;
59872;SDS011;50750;51.636;4.948;2023-03-29T01:15:46;2.10;;;1.30;;
59872;SDS011;50750;51.636;4.948;2023-03-29T01:18:13;3.30;;;1.50;;
59872;SDS011;50750;51.636;4.948;2023-03-29T01:25:43;2.50;;;1.30;;
59872;SDS011;50750;51.636;4.948;2023-03-29T01:28:35;2.70;;;1.30;;
59872;SDS011;50750;51.636;4.948;2023-03-29T01:31:18;2.90;;;1.30;;
59872;SDS011;50750;51.636;4.948;2023-03-29T01:33:51;2.50;;;1.10;;
59872;SDS011;50750;51.636;4.948;2023-03-29T01:36:28;2.50;;;1.20;;
59872;SDS011;50750;51.636;4.948;2023-03-29T01:39:02;2.60;;;1.40;;
59872;SDS011;50750;51.636;4.948;2023-03-29T01:44:09;3.70;;;1.60;;
59872;SDS011;50750;51.636;4.948;2023-03-29T01:49:27;2.80;;;1.30;;
59872;SDS011;50750;51.636;4.948;2023-03-29T01:52:05;2.50;;;1.30;;
59872;SDS011;50750;51.636;4.948;2023-03-29T01:54:41;3.10;;;1.30;;
59872;SDS011;50750;51.636;4.948;2023-03-29T01:57:13;2.60;;;1.40;;
59872;SDS011;50750;51.636;4.948;2023-03-29T01:59:42;2.80;;;1.40;;
59872;SDS011;50750;51.636;4.948;2023-03-29T02:02:13;2.30;;;1.20;;
59872;SDS011;50750;51.636;4.948;2023-03-29T02:04:45;2.40;;;1.40;;
59872;SDS011;50750;51.636;4.948;2023-03-29T02:07:15;2.90;;;1.30;;
59872;SDS011;50750;51.636;4.948;2023-03-29T02:09:45;2.30;;;1.30;;
59872;SDS011;50750;51.636;4.948;2023-03-29T02:12:14;2.20;;;1.20;;
59872;SDS011;50750;51.636;4.948;2023-03-29T02:14:42;3.10;;;1.90;;
59872;SDS011;50750;51.636;4.948;2023-03-29T02:17:22;2.80;;;1.20;;
59872;SDS011;50750;51.636;4.948;2023-03-29T02:19:51;3.10;;;1.30;;
59872;SDS011;50750;51.636;4.948;2023-03-29T02:22:28;2.70;;;1.40;;
59872;SDS011;50750;51.636;4.948;2023-03-29T02:25:02;2.60;;;1.20;;
59872;SDS011;50750;51.636;4.948;2023-03-29T02:27:34;2.50;;;1.20;;
59872;SDS011;50750;51.636;4.948;2023-03-29T02:30:03;1.90;;;1.10;;
59872;SDS011;50750;51.636;4.948;2023-03-29T02:32:33;2.30;;;1.20;;
59872;SDS011;50750;51.636;4.948;2023-03-29T02:35:08;2.50;;;1.40;;
59872;SDS011;50750;51.636;4.948;2023-03-29T02:37:40;2.00;;;1.20;;
59872;SDS011;50750;51.636;4.948;2023-03-29T02:40:10;2.60;;;1.30;;
59872;SDS011;50750;51.636;4.948;2023-03-29T02:45:08;2.40;;;1.30;;
59872;SDS011;50750;51.636;4.948;2023-03-29T02:47:39;1.90;;;1.10;;
59872;SDS011;50750;51.636;4.948;2023-03-29T02:50:10;2.90;;;1.40;;
59872;SDS011;50750;51.636;4.948;2023-03-29T02:52:38;2.70;;;1.30;;
59872;SDS011;50750;51.636;4.948;2023-03-29T02:55:11;2.90;;;1.20;;
59872;SDS011;50750;51.636;4.948;2023-03-29T02:57:42;3.30;;;1.20;;
59872;SDS011;50750;51.636;4.948;2023-03-29T03:00:09;2.50;;;1.20;;
59872;SDS011;50750;51.636;4.948;2023-03-29T03:02:37;2.20;;;1.20;;
59872;SDS011;50750;51.636;4.948;2023-03-29T03:05:03;2.90;;;1.30;;
59872;SDS011;50750;51.636;4.948;2023-03-29T03:07:31;2.70;;;1.50;;
59872;SDS011;50750;51.636;4.948;2023-03-29T03:09:58;2.20;;;1.20;;
59872;SDS011;50750;51.636;4.948;2023-03-29T03:12:25;2.70;;;1.30;;
59872;SDS011;50750;51.636;4.948;2023-03-29T03:14:52;2.60;;;1.20;;
59872;SDS011;50750;51.636;4.948;2023-03-29T03:17:19;2.40;;;1.20;;
59872;SDS011;50750;51.636;4.948;2023-03-29T03:19:48;2.90;;;1.50;;
59872;SDS011;50750;51.636;4.948;2023-03-29T03:22:14;2.40;;;1.40;;
59872;SDS011;50750;51.636;4.948;2023-03-29T03:24:41;2.00;;;1.00;;
59872;SDS011;50750;51.636;4.948;2023-03-29T03:27:07;2.30;;;1.30;;
59872;SDS011;50750;51.636;4.948;2023-03-29T03:29:34;3.90;;;1.40;;
59872;SDS011;50750;51.636;4.948;2023-03-29T03:32:01;2.40;;;1.40;;
59872;SDS011;50750;51.636;4.948;2023-03-29T03:34:29;2.30;;;1.40;;
59872;SDS011;50750;51.636;4.948;2023-03-29T03:36:55;2.90;;;1.40;;
59872;SDS011;50750;51.636;4.948;2023-03-29T03:39:22;2.20;;;1.20;;
59872;SDS011;50750;51.636;4.948;2023-03-29T03:41:48;3.20;;;1.40;;
59872;SDS011;50750;51.636;4.948;2023-03-29T03:44:15;2.40;;;1.10;;
59872;SDS011;50750;51.636;4.948;2023-03-29T03:46:41;2.50;;;1.40;;
59872;SDS011;50750;51.636;4.948;2023-03-29T03:49:08;3.40;;;1.60;;
59872;SDS011;50750;51.636;4.948;2023-03-29T03:51:34;3.40;;;1.40;;
59872;SDS011;50750;51.636;4.948;2023-03-29T03:54:01;3.20;;;1.50;;
59872;SDS011;50750;51.636;4.948;2023-03-29T03:56:27;4.00;;;1.30;;
59872;SDS011;50750;51.636;4.948;2023-03-29T03:58:55;2.30;;;1.10;;
59872;SDS011;50750;51.636;4.948;2023-03-29T04:01:22;2.80;;;1.60;;
59872;SDS011;50750;51.636;4.948;2023-03-29T04:03:49;3.00;;;1.20;;
59872;SDS011;50750;51.636;4.948;2023-03-29T04:06:15;2.90;;;1.30;;
59872;SDS011;50750;51.636;4.948;2023-03-29T04:08:42;3.70;;;1.50;;
59872;SDS011;50750;51.636;4.948;2023-03-29T04:11:08;3.20;;;1.30;;
59872;SDS011;50750;51.636;4.948;2023-03-29T04:13:35;3.40;;;1.30;;
59872;SDS011;50750;51.636;4.948;2023-03-29T04:16:02;2.60;;;1.20;;
59872;SDS011;50750;51.636;4.948;2023-03-29T04:18:29;2.70;;;1.50;;
59872;SDS011;50750;51.636;4.948;2023-03-29T04:20:55;2.70;;;1.40;;
59872;SDS011;50750;51.636;4.948;2023-03-29T04:23:22;2.30;;;1.30;;
59872;SDS011;50750;51.636;4.948;2023-03-29T04:25:48;3.70;;;1.40;;
59872;SDS011;50750;51.636;4.948;2023-03-29T04:28:19;2.50;;;1.40;;
59872;SDS011;50750;51.636;4.948;2023-03-29T04:30:46;2.90;;;1.40;;
59872;SDS011;50750;51.636;4.948;2023-03-29T04:33:14;3.00;;;1.50;;
59872;SDS011;50750;51.636;4.948;2023-03-29T04:35:41;2.40;;;1.40;;
59872;SDS011;50750;51.636;4.948;2023-03-29T04:38:07;3.60;;;1.40;;
59872;SDS011;50750;51.636;4.948;2023-03-29T04:40:35;3.20;;;1.60;;
59872;SDS011;50750;51.636;4.948;2023-03-29T04:43:02;2.50;;;1.40;;
59872;SDS011;50750;51.636;4.948;2023-03-29T04:45:29;1.90;;;1.10;;
59872;SDS011;50750;51.636;4.948;2023-03-29T04:47:56;2.20;;;1.30;;
59872;SDS011;50750;51.636;4.948;2023-03-29T04:50:24;2.70;;;1.30;;
59872;SDS011;50750;51.636;4.948;2023-03-29T04:52:51;2.90;;;1.40;;
59872;SDS011;50750;51.636;4.948;2023-03-29T04:55:17;2.60;;;1.40;;
59872;SDS011;50750;51.636;4.948;2023-03-29T04:57:44;2.80;;;1.40;;
59872;SDS011;50750;51.636;4.948;2023-03-29T05:00:11;3.20;;;1.40;;
59872;SDS011;50750;51.636;4.948;2023-03-29T05:02:42;3.00;;;1.70;;
59872;SDS011;50750;51.636;4.948;2023-03-29T05:05:11;2.60;;;1.40;;
59872;SDS011;50750;51.636;4.948;2023-03-29T05:07:38;2.50;;;1.30;;
59872;SDS011;50750;51.636;4.948;2023-03-29T05:10:06;3.10;;;1.40;;
59872;SDS011;50750;51.636;4.948;2023-03-29T05:12:33;2.30;;;1.30;;
59872;SDS011;50750;51.636;4.948;2023-03-29T05:15:00;2.10;;;1.30;;
59872;SDS011;50750;51.636;4.948;2023-03-29T05:17:27;3.00;;;1.20;;
59872;SDS011;50750;51.636;4.948;2023-03-29T05:19:54;3.80;;;1.40;;
59872;SDS011;50750;51.636;4.948;2023-03-29T05:22:20;3.10;;;1.40;;
59872;SDS011;50750;51.636;4.948;2023-03-29T05:24:48;2.10;;;1.20;;
59872;SDS011;50750;51.636;4.948;2023-03-29T05:27:16;2.80;;;1.40;;
59872;SDS011;50750;51.636;4.948;2023-03-29T05:29:43;2.90;;;1.50;;
59872;SDS011;50750;51.636;4.948;2023-03-29T05:34:39;2.30;;;1.30;;
59872;SDS011;50750;51.636;4.948;2023-03-29T05:37:06;3.50;;;1.50;;
59872;SDS011;50750;51.636;4.948;2023-03-29T05:39:32;3.60;;;1.30;;
59872;SDS011;50750;51.636;4.948;2023-03-29T05:42:00;3.40;;;1.60;;
59872;SDS011;50750;51.636;4.948;2023-03-29T05:44:26;2.60;;;1.40;;
59872;SDS011;50750;51.636;4.948;2023-03-29T05:46:53;2.80;;;1.40;;
59872;SDS011;50750;51.636;4.948;2023-03-29T05:49:19;2.60;;;1.50;;
59872;SDS011;50750;51.636;4.948;2023-03-29T05:51:46;4.00;;;1.60;;
59872;SDS011;50750;51.636;4.948;2023-03-29T05:54:13;5.60;;;2.20;;
59872;SDS011;50750;51.636;4.948;2023-03-29T05:56:40;5.60;;;1.90;;
59872;SDS011;50750;51.636;4.948;2023-03-29T05:59:07;5.30;;;1.80;;
59872;SDS011;50750;51.636;4.948;2023-03-29T06:01:33;5.10;;;2.10;;
59872;SDS011;50750;51.636;4.948;2023-03-29T06:04:01;3.20;;;1.80;;
59872;SDS011;50750;51.636;4.948;2023-03-29T06:06:28;4.10;;;1.80;;
59872;SDS011;50750;51.636;4.948;2023-03-29T06:08:55;3.60;;;1.90;;
59872;SDS011;50750;51.636;4.948;2023-03-29T06:11:21;3.50;;;1.80;;
59872;SDS011;50750;51.636;4.948;2023-03-29T06:13:51;5.10;;;1.90;;
59872;SDS011;50750;51.636;4.948;2023-03-29T06:16:18;3.30;;;1.80;;
59872;SDS011;50750;51.636;4.948;2023-03-29T06:18:45;4.00;;;2.00;;
59872;SDS011;50750;51.636;4.948;2023-03-29T06:21:11;4.50;;;2.00;;
59872;SDS011;50750;51.636;4.948;2023-03-29T06:23:38;3.90;;;1.90;;
59872;SDS011;50750;51.636;4.948;2023-03-29T06:26:04;3.80;;;2.00;;
59872;SDS011;50750;51.636;4.948;2023-03-29T06:28:31;3.70;;;2.00;;
59872;SDS011;50750;51.636;4.948;2023-03-29T06:30:58;3.60;;;1.70;;
59872;SDS011;50750;51.636;4.948;2023-03-29T06:33:28;3.60;;;1.80;;
59872;SDS011;50750;51.636;4.948;2023-03-29T06:35:55;3.60;;;1.80;;
59872;SDS011;50750;51.636;4.948;2023-03-29T06:38:23;5.40;;;2.00;;
59872;SDS011;50750;51.636;4.948;2023-03-29T06:40:58;4.90;;;1.90;;
59872;SDS011;50750;51.636;4.948;2023-03-29T06:43:26;3.40;;;1.70;;
59872;SDS011;50750;51.636;4.948;2023-03-29T06:45:52;3.30;;;1.70;;
59872;SDS011;50750;51.636;4.948;2023-03-29T06:48:19;3.90;;;1.70;;
59872;SDS011;50750;51.636;4.948;2023-03-29T06:50:47;5.00;;;2.00;;
59872;SDS011;50750;51.636;4.948;2023-03-29T06:53:14;3.80;;;1.80;;
59872;SDS011;50750;51.636;4.948;2023-03-29T06:55:42;4.80;;;1.90;;
59872;SDS011;50750;51.636;4.948;2023-03-29T06:58:08;3.00;;;1.70;;
59872;SDS011;50750;51.636;4.948;2023-03-29T07:00:36;5.10;;;1.70;;
59872;SDS011;50750;51.636;4.948;2023-03-29T07:03:05;4.00;;;1.90;;
59872;SDS011;50750;51.636;4.948;2023-03-29T07:05:33;3.20;;;1.70;;
59872;SDS011;50750;51.636;4.948;2023-03-29T07:08:01;3.30;;;1.70;;
59872;SDS011;50750;51.636;4.948;2023-03-29T07:10:34;2.90;;;1.70;;
59872;SDS011;50750;51.636;4.948;2023-03-29T07:13:06;4.50;;;1.90;;
59872;SDS011;50750;51.636;4.948;2023-03-29T07:15:37;3.70;;;1.70;;
59872;SDS011;50750;51.636;4.948;2023-03-29T07:18:05;3.50;;;1.80;;
59872;SDS011;50750;51.636;4.948;2023-03-29T07:20:32;3.50;;;1.80;;
59872;SDS011;50750;51.636;4.948;2023-03-29T07:22:59;3.40;;;1.50;;
59872;SDS011;50750;51.636;4.948;2023-03-29T07:25:26;4.30;;;1.90;;
59872;SDS011;50750;51.636;4.948;2023-03-29T07:27:53;3.80;;;1.70;;
59872;SDS011;50750;51.636;4.948;2023-03-29T07:30:20;4.40;;;1.60;;
59872;SDS011;50750;51.636;4.948;2023-03-29T07:32:49;3.60;;;1.80;;
59872;SDS011;50750;51.636;4.948;2023-03-29T07:35:17;3.30;;;1.80;;
59872;SDS011;50750;51.636;4.948;2023-03-29T07:37:44;4.70;;;1.80;;
59872;SDS011;50750;51.636;4.948;2023-03-29T07:40:12;3.30;;;1.60;;
59872;SDS011;50750;51.636;4.948;2023-03-29T07:42:42;4.00;;;1.70;;
59872;SDS011;50750;51.636;4.948;2023-03-29T07:45:09;5.80;;;2.30;;
59872;SDS011;50750;51.636;4.948;2023-03-29T07:47:39;2.80;;;1.50;;
59872;SDS011;50750;51.636;4.948;2023-03-29T07:50:07;3.40;;;1.90;;
59872;SDS011;50750;51.636;4.948;2023-03-29T07:52:35;3.00;;;1.70;;
59872;SDS011;50750;51.636;4.948;2023-03-29T07:55:04;4.30;;;1.90;;
59872;SDS011;50750;51.636;4.948;2023-03-29T07:57:32;3.50;;;1.60;;
59872;SDS011;50750;51.636;4.948;2023-03-29T07:59:59;3.90;;;2.00;;
59872;SDS011;50750;51.636;4.948;2023-03-29T08:02:26;3.40;;;1.70;;
59872;SDS011;50750;51.636;4.948;2023-03-29T08:04:53;3.50;;;1.90;;
59872;SDS011;50750;51.636;4.948;2023-03-29T08:07:20;4.60;;;2.00;;
59872;SDS011;50750;51.636;4.948;2023-03-29T08:09:46;4.10;;;1.60;;
59872;SDS011;50750;51.636;4.948;2023-03-29T08:12:13;4.90;;;1.70;;
59872;SDS011;50750;51.636;4.948;2023-03-29T08:14:40;3.50;;;1.90;;
59872;SDS011;50750;51.636;4.948;2023-03-29T08:17:06;3.90;;;1.70;;
59872;SDS011;50750;51.636;4.948;2023-03-29T08:19:33;3.90;;;1.90;;
59872;SDS011;50750;51.636;4.948;2023-03-29T08:21:59;3.30;;;1.70;;
59872;SDS011;50750;51.636;4.948;2023-03-29T08:24:26;4.10;;;1.80;;
59872;SDS011;50750;51.636;4.948;2023-03-29T08:26:53;5.60;;;1.80;;
59872;SDS011;50750;51.636;4.948;2023-03-29T08:29:19;3.90;;;1.80;;
59872;SDS011;50750;51.636;4.948;2023-03-29T08:31:46;3.80;;;1.90;;
59872;SDS011;50750;51.636;4.948;2023-03-29T08:34:12;3.00;;;1.70;;
59872;SDS011;50750;51.636;4.948;2023-03-29T08:36:39;2.90;;;1.90;;
59872;SDS011;50750;51.636;4.948;2023-03-29T08:39:06;5.00;;;1.90;;
59872;SDS011;50750;51.636;4.948;2023-03-29T08:50:12;5.30;;;2.50;;
59872;SDS011;50750;51.636;4.948;2023-03-29T08:52:41;5.30;;;2.20;;
59872;SDS011;50750;51.636;4.948;2023-03-29T08:57:47;4.20;;;2.20;;
59872;SDS011;50750;51.636;4.948;2023-03-29T09:00:20;3.90;;;2.30;;
59872;SDS011;50750;51.636;4.948;2023-03-29T09:02:57;4.10;;;2.00;;
59872;SDS011;50750;51.636;4.948;2023-03-29T09:05:38;4.20;;;2.20;;
59872;SDS011;50750;51.636;4.948;2023-03-29T09:08:12;3.50;;;1.90;;
59872;SDS011;50750;51.636;4.948;2023-03-29T09:11:03;4.20;;;2.30;;
59872;SDS011;50750;51.636;4.948;2023-03-29T09:13:57;4.10;;;2.10;;
59872;SDS011;50750;51.636;4.948;2023-03-29T09:16:37;3.60;;;2.30;;
59872;SDS011;50750;51.636;4.948;2023-03-29T09:30:40;4.20;;;2.60;;
59872;SDS011;50750;51.636;4.948;2023-03-29T09:35:46;5.10;;;2.60;;
59872;SDS011;50750;51.636;4.948;2023-03-29T09:38:20;5.70;;;2.80;;
59872;SDS011;50750;51.636;4.948;2023-03-29T09:43:40;5.10;;;2.90;;
59872;SDS011;50750;51.636;4.948;2023-03-29T09:46:14;6.20;;;3.20;;
59872;SDS011;50750;51.636;4.948;2023-03-29T09:48:48;4.00;;;2.80;;
59872;SDS011;50750;51.636;4.948;2023-03-29T09:51:16;5.00;;;2.40;;
59872;SDS011;50750;51.636;4.948;2023-03-29T09:53:47;5.20;;;2.80;;
59872;SDS011;50750;51.636;4.948;2023-03-29T09:56:14;4.80;;;3.00;;
59872;SDS011;50750;51.636;4.948;2023-03-29T09:58:42;6.30;;;3.10;;
59872;SDS011;50750;51.636;4.948;2023-03-29T10:01:11;5.40;;;2.80;;
59872;SDS011;50750;51.636;4.948;2023-03-29T10:03:46;5.30;;;2.80;;
59872;SDS011;50750;51.636;4.948;2023-03-29T10:06:14;6.40;;;3.90;;
59872;SDS011;50750;51.636;4.948;2023-03-29T10:08:47;5.90;;;2.90;;
59872;SDS011;50750;51.636;4.948;2023-03-29T10:11:19;5.30;;;3.20;;
59872;SDS011;50750;51.636;4.948;2023-03-29T10:13:57;5.50;;;3.20;;
59872;SDS011;50750;51.636;4.948;2023-03-29T10:16:35;6.00;;;3.10;;
59872;SDS011;50750;51.636;4.948;2023-03-29T10:21:49;5.40;;;3.00;;
59872;SDS011;50750;51.636;4.948;2023-03-29T10:24:21;5.10;;;3.30;;
59872;SDS011;50750;51.636;4.948;2023-03-29T10:26:50;5.90;;;3.50;;
59872;SDS011;50750;51.636;4.948;2023-03-29T10:29:24;6.50;;;3.60;;
59872;SDS011;50750;51.636;4.948;2023-03-29T10:31:53;6.50;;;4.00;;
59872;SDS011;50750;51.636;4.948;2023-03-29T10:34:20;4.00;;;3.10;;
59872;SDS011;50750;51.636;4.948;2023-03-29T10:36:57;6.40;;;4.30;;
59872;SDS011;50750;51.636;4.948;2023-03-29T10:39:26;5.80;;;3.20;;
59872;SDS011;50750;51.636;4.948;2023-03-29T10:41:58;5.20;;;3.30;;
59872;SDS011;50750;51.636;4.948;2023-03-29T10:44:27;5.90;;;3.40;;
59872;SDS011;50750;51.636;4.948;2023-03-29T10:47:05;6.60;;;3.30;;
59872;SDS011;50750;51.636;4.948;2023-03-29T10:49:47;6.20;;;4.20;;
59872;SDS011;50750;51.636;4.948;2023-03-29T10:52:17;6.20;;;3.50;;
59872;SDS011;50750;51.636;4.948;2023-03-29T10:54:44;5.60;;;3.80;;
59872;SDS011;50750;51.636;4.948;2023-03-29T10:57:13;6.50;;;4.20;;
59872;SDS011;50750;51.636;4.948;2023-03-29T10:59:48;4.70;;;3.40;;
59872;SDS011;50750;51.636;4.948;2023-03-29T11:02:27;6.50;;;3.60;;
59872;SDS011;50750;51.636;4.948;2023-03-29T11:10:45;6.50;;;4.00;;
59872;SDS011;50750;51.636;4.948;2023-03-29T11:16:09;6.00;;;3.90;;
59872;SDS011;50750;51.636;4.948;2023-03-29T11:27:34;4.90;;;3.70;;
59872;SDS011;50750;51.636;4.948;2023-03-29T11:36:33;5.70;;;3.60;;
59872;SDS011;50750;51.636;4.948;2023-03-29T11:41:21;4.80;;;3.40;;
59872;SDS011;50750;51.636;4.948;2023-03-29T11:44:05;5.30;;;3.60;;
59872;SDS011;50750;51.636;4.948;2023-03-29T11:54:58;4.60;;;3.00;;
59872;SDS011;50750;51.636;4.948;2023-03-29T12:02:38;4.80;;;3.30;;
59872;SDS011;50750;51.636;4.948;2023-03-29T12:05:17;5.20;;;3.20;;
59872;SDS011;50750;51.636;4.948;2023-03-29T12:10:35;4.90;;;3.50;;
59872;SDS011;50750;51.636;4.948;2023-03-29T12:13:23;5.40;;;3.10;;
59872;SDS011;50750;51.636;4.948;2023-03-29T12:16:01;5.50;;;3.20;;
59872;SDS011;50750;51.636;4.948;2023-03-29T12:18:32;4.60;;;3.20;;
59872;SDS011;50750;51.636;4.948;2023-03-29T12:21:10;5.00;;;3.20;;
59872;SDS011;50750;51.636;4.948;2023-03-29T12:23:40;4.50;;;3.40;;
59872;SDS011;50750;51.636;4.948;2023-03-29T12:39:26;5.40;;;3.30;;
59872;SDS011;50750;51.636;4.948;2023-03-29T12:42:04;5.20;;;3.30;;
59872;SDS011;50750;51.636;4.948;2023-03-29T12:44:37;4.60;;;3.10;;
59872;SDS011;50750;51.636;4.948;2023-03-29T12:47:08;4.00;;;2.80;;
59872;SDS011;50750;51.636;4.948;2023-03-29T12:49:53;4.00;;;2.90;;
59872;SDS011;50750;51.636;4.948;2023-03-29T12:52:23;4.40;;;3.00;;
59872;SDS011;50750;51.636;4.948;2023-03-29T12:54:56;5.40;;;3.30;;
59872;SDS011;50750;51.636;4.948;2023-03-29T12:57:37;4.50;;;2.90;;
59872;SDS011;50750;51.636;4.948;2023-03-29T13:00:25;4.10;;;2.90;;
59872;SDS011;50750;51.636;4.948;2023-03-29T13:03:02;3.80;;;2.70;;
59872;SDS011;50750;51.636;4.948;2023-03-29T13:05:34;4.70;;;2.90;;
59872;SDS011;50750;51.636;4.948;2023-03-29T13:08:21;5.00;;;3.00;;
59872;SDS011;50750;51.636;4.948;2023-03-29T13:10:53;4.50;;;2.90;;
59872;SDS011;50750;51.636;4.948;2023-03-29T13:13:39;4.20;;;2.90;;
59872;SDS011;50750;51.636;4.948;2023-03-29T13:16:15;4.70;;;2.90;;
59872;SDS011;50750;51.636;4.948;2023-03-29T13:18:53;6.00;;;3.10;;
59872;SDS011;50750;51.636;4.948;2023-03-29T13:38:20;4.00;;;2.50;;
59872;SDS011;50750;51.636;4.948;2023-03-29T13:43:21;3.60;;;2.50;;
59872;SDS011;50750;51.636;4.948;2023-03-29T13:53:54;4.60;;;2.50;;
59872;SDS011;50750;51.636;4.948;2023-03-29T13:56:31;3.90;;;2.20;;
59872;SDS011;50750;51.636;4.948;2023-03-29T13:59:19;3.70;;;2.40;;
59872;SDS011;50750;51.636;4.948;2023-03-29T14:01:56;3.40;;;2.30;;
59872;SDS011;50750;51.636;4.948;2023-03-29T14:04:26;3.20;;;2.50;;
59872;SDS011;50750;51.636;4.948;2023-03-29T14:06:57;4.30;;;2.40;;
59872;SDS011;50750;51.636;4.948;2023-03-29T14:09:30;3.10;;;2.00;;
59872;SDS011;50750;51.636;4.948;2023-03-29T14:12:01;3.90;;;2.50;;
59872;SDS011;50750;51.636;4.948;2023-03-29T14:14:28;3.60;;;2.10;;
59872;SDS011;50750;51.636;4.948;2023-03-29T14:16:57;4.60;;;2.40;;
59872;SDS011;50750;51.636;4.948;2023-03-29T14:19:29;3.60;;;2.10;;
59872;SDS011;50750;51.636;4.948;2023-03-29T14:21:58;3.40;;;2.10;;
59872;SDS011;50750;51.636;4.948;2023-03-29T14:24:32;3.50;;;2.20;;
59872;SDS011;50750;51.636;4.948;2023-03-29T14:27:04;3.30;;;2.00;;
59872;SDS011;50750;51.636;4.948;2023-03-29T14:29:36;3.30;;;2.10;;
59872;SDS011;50750;51.636;4.948;2023-03-29T14:32:07;3.60;;;2.30;;
59872;SDS011;50750;51.636;4.948;2023-03-29T14:34:38;3.30;;;2.30;;
59872;SDS011;50750;51.636;4.948;2023-03-29T14:37:05;4.00;;;2.30;;
59872;SDS011;50750;51.636;4.948;2023-03-29T14:42:02;4.40;;;2.20;;
59872;SDS011;50750;51.636;4.948;2023-03-29T14:44:35;4.60;;;2.30;;
59872;SDS011;50750;51.636;4.948;2023-03-29T14:47:03;3.00;;;2.00;;
59872;SDS011;50750;51.636;4.948;2023-03-29T14:49:29;3.60;;;2.00;;
59872;SDS011;50750;51.636;4.948;2023-03-29T14:51:57;4.10;;;2.10;;
59872;SDS011;50750;51.636;4.948;2023-03-29T14:54:25;4.50;;;2.10;;
59872;SDS011;50750;51.636;4.948;2023-03-29T14:56:56;4.50;;;2.40;;
59872;SDS011;50750;51.636;4.948;2023-03-29T14:59:36;3.10;;;1.90;;
59872;SDS011;50750;51.636;4.948;2023-03-29T15:02:23;3.50;;;1.90;;
59872;SDS011;50750;51.636;4.948;2023-03-29T15:05:05;2.50;;;1.60;;
59872;SDS011;50750;51.636;4.948;2023-03-29T15:07:46;3.20;;;1.80;;
59872;SDS011;50750;51.636;4.948;2023-03-29T15:10:14;2.80;;;1.70;;
59872;SDS011;50750;51.636;4.948;2023-03-29T15:12:44;3.70;;;2.00;;
59872;SDS011;50750;51.636;4.948;2023-03-29T15:15:11;2.90;;;1.80;;
59872;SDS011;50750;51.636;4.948;2023-03-29T15:17:39;3.50;;;1.90;;
59872;SDS011;50750;51.636;4.948;2023-03-29T15:20:11;2.70;;;1.80;;
59872;SDS011;50750;51.636;4.948;2023-03-29T15:22:50;4.00;;;1.70;;
59872;SDS011;50750;51.636;4.948;2023-03-29T15:25:25;4.00;;;1.80;;
59872;SDS011;50750;51.636;4.948;2023-03-29T15:27:54;2.80;;;1.60;;
59872;SDS011;50750;51.636;4.948;2023-03-29T15:30:35;3.00;;;1.80;;
59872;SDS011;50750;51.636;4.948;2023-03-29T15:33:21;3.70;;;1.70;;
59872;SDS011;50750;51.636;4.948;2023-03-29T15:35:51;2.60;;;1.70;;
59872;SDS011;50750;51.636;4.948;2023-03-29T15:38:19;3.20;;;1.50;;
59872;SDS011;50750;51.636;4.948;2023-03-29T15:40:46;2.80;;;1.70;;
59872;SDS011;50750;51.636;4.948;2023-03-29T15:43:13;3.10;;;1.90;;
59872;SDS011;50750;51.636;4.948;2023-03-29T15:45:40;2.90;;;1.70;;
59872;SDS011;50750;51.636;4.948;2023-03-29T15:48:17;4.00;;;1.90;;
59872;SDS011;50750;51.636;4.948;2023-03-29T15:50:45;2.90;;;1.80;;
59872;SDS011;50750;51.636;4.948;2023-03-29T15:53:13;3.90;;;2.00;;
59872;SDS011;50750;51.636;4.948;2023-03-29T15:55:46;4.10;;;2.10;;
59872;SDS011;50750;51.636;4.948;2023-03-29T15:58:19;4.10;;;1.90;;
59872;SDS011;50750;51.636;4.948;2023-03-29T16:00:51;4.00;;;2.30;;
59872;SDS011;50750;51.636;4.948;2023-03-29T16:03:36;3.90;;;1.80;;
59872;SDS011;50750;51.636;4.948;2023-03-29T16:06:04;3.70;;;1.90;;
59872;SDS011;50750;51.636;4.948;2023-03-29T16:08:31;4.00;;;1.80;;
59872;SDS011;50750;51.636;4.948;2023-03-29T16:10:57;3.20;;;1.70;;
59872;SDS011;50750;51.636;4.948;2023-03-29T16:13:24;3.10;;;1.70;;
59872;SDS011;50750;51.636;4.948;2023-03-29T16:15:50;3.10;;;2.00;;
59872;SDS011;50750;51.636;4.948;2023-03-29T16:18:17;3.30;;;1.80;;
59872;SDS011;50750;51.636;4.948;2023-03-29T16:20:43;10.50;;;2.20;;
59872;SDS011;50750;51.636;4.948;2023-03-29T16:23:10;4.50;;;2.50;;
59872;SDS011;50750;51.636;4.948;2023-03-29T16:25:38;3.90;;;2.20;;
59872;SDS011;50750;51.636;4.948;2023-03-29T16:28:06;4.10;;;2.00;;
59872;SDS011;50750;51.636;4.948;2023-03-29T16:30:34;3.60;;;2.00;;
59872;SDS011;50750;51.636;4.948;2023-03-29T16:33:03;4.00;;;2.30;;
59872;SDS011;50750;51.636;4.948;2023-03-29T16:35:34;6.20;;;2.00;;
59872;SDS011;50750;51.636;4.948;2023-03-29T16:38:03;4.30;;;2.70;;
59872;SDS011;50750;51.636;4.948;2023-03-29T16:40:29;3.60;;;1.90;;
59872;SDS011;50750;51.636;4.948;2023-03-29T16:42:56;4.10;;;2.30;;
59872;SDS011;50750;51.636;4.948;2023-03-29T16:45:23;4.00;;;2.00;;
59872;SDS011;50750;51.636;4.948;2023-03-29T16:47:50;3.80;;;2.00;;
59872;SDS011;50750;51.636;4.948;2023-03-29T16:50:17;5.10;;;2.20;;
59872;SDS011;50750;51.636;4.948;2023-03-29T16:52:45;3.90;;;2.00;;
59872;SDS011;50750;51.636;4.948;2023-03-29T16:55:13;4.00;;;2.00;;
59872;SDS011;50750;51.636;4.948;2023-03-29T16:57:44;2.90;;;1.60;;
59872;SDS011;50750;51.636;4.948;2023-03-29T17:00:12;3.60;;;2.00;;
59872;SDS011;50750;51.636;4.948;2023-03-29T17:02:41;3.10;;;1.90;;
59872;SDS011;50750;51.636;4.948;2023-03-29T17:05:09;3.70;;;2.00;;
59872;SDS011;50750;51.636;4.948;2023-03-29T17:07:37;3.80;;;1.80;;
59872;SDS011;50750;51.636;4.948;2023-03-29T17:10:05;3.50;;;1.90;;
59872;SDS011;50750;51.636;4.948;2023-03-29T17:12:33;3.80;;;1.60;;
59872;SDS011;50750;51.636;4.948;2023-03-29T17:15:00;3.30;;;1.70;;
59872;SDS011;50750;51.636;4.948;2023-03-29T17:17:27;2.90;;;1.50;;
59872;SDS011;50750;51.636;4.948;2023-03-29T17:19:54;2.80;;;1.60;;